La Puebla del Rio, Spain
Current Conditions -  °F | °C
As of 5:30 AM on Sunday 23 Nov 2014 (Local Time) from LEZL Reporting Station
Clear Clear  
Wind Chill: 57°   Ceiling: Unl
Heat Index: 57°   Visibility: 6mi
Dew Point: 54°   Wind: 0mph
Humidity: 88%   Direction: NA
Pressure: 29.77"   Gusts: NA
Location:  37.27°N, 6.06°W
Report Text: LEZL 230430Z 00000KT CAVOK 14/12 Q1008 NOSIG
Loading
Personal Weather Stations






























Interactive Weather Map New forecast layout! Learn more

10-Day Weather Forecast

Advertisements
Track Severe Weather on mobile